Zamosc, Poland
Current Conditions -  °F | °C
As of 6:30 PM on Friday 19 Dec 2014 (Local Time) from EPLB Reporting Station
Light Rain Light Rain  
Wind Chill: 52°   Ceiling: 1000
Heat Index: 52°   Visibility: 5mi
Dew Point: 50°   Wind: 16mph
Humidity: 94%   Direction: 230°SW
Pressure: 29.74"   Gusts: NA
Location:  50.73°N, 23.26°E
Report Text: EPLB 191630Z 23014KT 8000 -RA FEW008 BKN010 OVC016 11/10 Q1007
Loading
Personal Weather Stations






























Interactive Weather Map New forecast layout! Learn more

10-Day Weather Forecast

Advertisements
Track Severe Weather on mobile